Time;durP1;ratioP1;P1;durP2;ratioP2;P2;SDS_P1;SDS_P2;PMS_P1;PMS_P2;Temp;Humidity;BMP_temperature;BMP_pressure;BME280_temperature;BME280_humidity;BME280_pressure;Samples;Min_cycle;Max_cycle;Signal;HPM_P1;HPM_P2
2022/02/12 00:01:36;;;;;;;;;;;3.20;99.90;;;;;;5018539;28;19952;-92
2022/02/12 00:04:04;;;;;;;;;;;3.40;99.90;;;;;;5009069;28;20323;-92
2022/02/12 00:06:33;;;;;;;;;;;3.20;99.90;;;;;;5023714;28;19929;-94
2022/02/12 00:09:01;;;;;;;;;;;3.70;99.90;;;;;;5025116;28;19930;-90
2022/02/12 00:11:34;;;;;;;;;;;3.20;99.90;;;;;;5009685;28;19929;-91
2022/02/12 00:14:10;;;;;;;;;;;3.20;99.90;;;;;;5004718;28;19926;-91
2022/02/12 00:16:41;;;;;;;;;;;3.20;99.90;;;;;;4989131;28;19933;-93
2022/02/12 00:19:15;;;;;;;;;;;3.20;99.90;;;;;;5005422;28;19926;-91
2022/02/12 00:21:48;;;;;;;;;;;3.20;99.90;;;;;;4988975;28;19936;-91
2022/02/12 00:24:17;;;;;;;;;;;3.20;99.90;;;;;;4987082;28;19937;-91
2022/02/12 00:26:45;;;;;;;;;;;2.70;99.90;;;;;;4989465;28;19932;-90
2022/02/12 00:29:17;;;;;;;;;;;3.20;99.90;;;;;;5006863;28;20025;-92
2022/02/12 00:31:50;;;;;;;;;;;3.30;99.90;;;;;;5005059;28;19925;-91
2022/02/12 00:34:19;;;;;;;;;;;3.30;99.90;;;;;;4990203;28;19926;-91
2022/02/12 00:36:49;;;;;;;;;;;3.30;99.90;;;;;;4991226;28;19930;-90
2022/02/12 00:39:22;;;;;;;;;;;3.30;99.90;;;;;;5007567;28;19937;-91
2022/02/12 00:41:50;;;;;;;;;;;3.30;99.90;;;;;;5019506;28;19936;-89
2022/02/12 00:44:23;;;;;;;;;;;3.30;99.90;;;;;;5028117;28;19926;-90
2022/02/12 00:46:57;;;;;;;;;;;3.30;99.90;;;;;;5011430;28;19932;-90
2022/02/12 00:49:27;;;;;;;;;;;3.30;99.90;;;;;;5005674;28;19933;-91
2022/02/12 00:51:57;;;;;;;;;;;1.80;99.90;;;;;;4999032;28;19926;-92
2022/02/12 00:54:33;;;;;;;;;;;3.20;99.90;;;;;;4993740;28;20025;-92
2022/02/12 00:57:05;;;;;;;;;;;3.30;99.90;;;;;;4963358;28;19933;-93
2022/02/12 00:59:35;;;;;;;;;;;2.50;99.90;;;;;;4996433;28;19941;-94
2022/02/12 01:02:04;;;;;;;;;;;3.30;99.90;;;;;;4990701;28;19926;-94
2022/02/12 01:04:36;;;;;;;;;;;3.30;99.90;;;;;;4987659;28;19930;-92
2022/02/12 01:07:07;;;;;;;;;;;3.20;99.90;;;;;;5005587;28;19930;-93
2022/02/12 01:09:41;;;;;;;;;;;3.20;99.90;;;;;;4993248;28;19918;-92
2022/02/12 01:12:20;;;;;;;;;;;3.20;99.90;;;;;;4998420;28;19913;-92
2022/02/12 01:14:50;;;;;;;;;;;3.10;99.90;;;;;;5030188;28;19936;-93
2022/02/12 01:17:25;;;;;;;;;;;3.10;99.90;;;;;;4979950;28;19914;-91
2022/02/12 01:19:57;;;;;;;;;;;3.00;99.90;;;;;;5006173;28;19933;-92
2022/02/12 01:22:28;;;;;;;;;;;3.00;99.90;;;;;;5013679;28;20419;-91
2022/02/12 01:25:01;;;;;;;;;;;3.00;99.90;;;;;;4996343;28;19929;-93
2022/02/12 01:27:31;;;;;;;;;;;3.00;99.90;;;;;;5012416;28;19937;-93
2022/02/12 01:29:59;;;;;;;;;;;3.00;99.90;;;;;;4979532;28;19915;-92
2022/02/12 01:32:30;;;;;;;;;;;3.40;99.90;;;;;;4977690;28;19925;-93
2022/02/12 01:35:30;;;;;;;;;;;3.00;99.90;;;;;;4980543;28;19917;-92
2022/02/12 01:38:04;;;;;;;;;;;3.00;99.90;;;;;;4997668;28;19926;-93
2022/02/12 01:40:34;;;;;;;;;;;2.90;99.90;;;;;;4998632;28;19918;-92
2022/02/12 01:43:07;;;;;;;;;;;2.90;99.90;;;;;;4982965;28;19930;-90
2022/02/12 01:45:34;;;;;;;;;;;2.90;99.90;;;;;;4983443;28;20380;-93
2022/02/12 01:48:05;;;;;;;;;;;2.90;99.90;;;;;;5011244;28;19930;-93
2022/02/12 01:50:37;;;;;;;;;;;2.80;99.90;;;;;;4982463;28;20102;-94
2022/02/12 01:53:10;;;;;;;;;;;3.00;99.90;;;;;;5006396;28;19930;-91
2022/02/12 01:55:39;;;;;;;;;;;3.00;99.90;;;;;;4991234;28;19926;-94
2022/02/12 01:58:11;;;;;;;;;;;3.00;99.90;;;;;;4990942;28;19940;-93
2022/02/12 02:00:41;;;;;;;;;;;3.20;99.90;;;;;;4992638;28;19926;-93
2022/02/12 02:03:17;;;;;;;;;;;3.10;99.90;;;;;;5008818;28;19933;-93
2022/02/12 02:05:54;;;;;;;;;;;3.20;99.90;;;;;;4992638;28;20519;-94
2022/02/12 02:08:29;;;;;;;;;;;3.20;99.90;;;;;;4988709;28;19937;-92
2022/02/12 02:11:02;;;;;;;;;;;3.30;99.90;;;;;;5011245;28;19936;-93
2022/02/12 02:13:33;;;;;;;;;;;3.40;99.90;;;;;;5008510;28;19926;-93
2022/02/12 02:16:11;;;;;;;;;;;3.40;99.90;;;;;;4990620;28;19935;-93
2022/02/12 02:18:52;;;;;;;;;;;3.40;99.90;;;;;;4974104;28;20097;-94
2022/02/12 02:21:22;;;;;;;;;;;3.40;99.90;;;;;;5023892;28;19937;-92
2022/02/12 02:23:51;;;;;;;;;;;3.50;99.90;;;;;;5009849;28;19922;-92
2022/02/12 02:26:20;;;;;;;;;;;3.50;99.90;;;;;;5010264;28;20612;-95
2022/02/12 02:28:50;;;;;;;;;;;3.50;99.90;;;;;;5006193;28;19929;-91
2022/02/12 02:31:19;;;;;;;;;;;3.60;99.90;;;;;;5007794;28;19926;-94
2022/02/12 02:33:55;;;;;;;;;;;3.50;99.90;;;;;;4991819;28;20508;-92
2022/02/12 02:36:24;;;;;;;;;;;3.60;99.90;;;;;;5009636;28;19960;-93
2022/02/12 02:38:53;;;;;;;;;;;3.60;99.90;;;;;;5015235;28;19925;-93
2022/02/12 02:41:21;;;;;;;;;;;2.60;99.90;;;;;;5045399;28;19932;-94
2022/02/12 02:43:50;;;;;;;;;;;3.70;99.90;;;;;;4998022;28;19926;-93
2022/02/12 02:46:19;;;;;;;;;;;3.80;99.90;;;;;;5006455;28;19925;-94
2022/02/12 02:49:01;;;;;;;;;;;4.10;99.90;;;;;;4989697;28;19948;-94
2022/02/12 02:57:38;;;;;;;;;;;3.70;99.90;;;;;;5003419;28;19937;-92
2022/02/12 03:00:07;;;;;;;;;;;3.70;99.90;;;;;;4987977;28;20009;-93
2022/02/12 03:02:41;;;;;;;;;;;3.70;99.90;;;;;;5006782;28;19926;-93
2022/02/12 03:05:12;;;;;;;;;;;3.50;99.90;;;;;;5005892;28;19925;-93
2022/02/12 03:07:40;;;;;;;;;;;3.60;99.90;;;;;;5004760;28;19926;-92
2022/02/12 03:10:08;;;;;;;;;;;3.60;99.90;;;;;;5003224;28;19937;-92
2022/02/12 03:12:36;;;;;;;;;;;3.60;99.90;;;;;;4994063;28;19926;-92
2022/02/12 03:15:06;;;;;;;;;;;4.10;99.90;;;;;;5019911;28;19925;-93
2022/02/12 03:17:35;;;;;;;;;;;3.60;99.90;;;;;;4976954;28;20089;-93
2022/02/12 03:20:03;;;;;;;;;;;3.60;99.90;;;;;;5015739;28;19949;-92
2022/02/12 03:22:32;;;;;;;;;;;3.60;99.90;;;;;;5006388;28;19932;-92
2022/02/12 03:25:03;;;;;;;;;;;3.60;99.90;;;;;;5007717;28;19933;-91
2022/02/12 03:27:34;;;;;;;;;;;3.60;99.90;;;;;;5005058;28;19932;-92
2022/02/12 03:30:04;;;;;;;;;;;3.60;99.90;;;;;;4991362;28;19926;-92
2022/02/12 03:32:32;;;;;;;;;;;3.70;99.90;;;;;;4981940;28;19926;-90
2022/02/12 03:35:02;;;;;;;;;;;3.70;99.90;;;;;;4981499;28;20387;-92
2022/02/12 03:37:33;;;;;;;;;;;3.70;99.90;;;;;;5007317;28;19932;-93
2022/02/12 03:40:13;;;;;;;;;;;3.70;99.90;;;;;;5015921;28;19932;-91
2022/02/12 03:42:41;;;;;;;;;;;3.70;99.90;;;;;;5031557;28;19914;-94
2022/02/12 03:45:10;;;;;;;;;;;3.80;99.90;;;;;;4997520;28;19920;-93
2022/02/12 03:47:42;;;;;;;;;;;3.80;99.90;;;;;;4990675;28;19945;-92
2022/02/12 03:50:11;;;;;;;;;;;3.80;99.90;;;;;;4994297;28;19929;-93
2022/02/12 03:52:39;;;;;;;;;;;3.80;99.90;;;;;;4983739;28;19933;-92
2022/02/12 03:55:09;;;;;;;;;;;3.90;99.90;;;;;;5014939;28;19933;-92
2022/02/12 03:57:37;;;;;;;;;;;3.90;99.90;;;;;;5001999;28;20436;-93
2022/02/12 04:00:07;;;;;;;;;;;4.00;99.90;;;;;;4967907;28;19927;-94
2022/02/12 04:02:38;;;;;;;;;;;3.50;99.90;;;;;;4983127;28;19999;-93
2022/02/12 04:05:07;;;;;;;;;;;4.00;99.90;;;;;;5000291;28;19933;-93
2022/02/12 04:07:38;;;;;;;;;;;4.10;99.90;;;;;;4999292;28;19937;-93
2022/02/12 04:10:09;;;;;;;;;;;4.10;99.90;;;;;;4984329;28;19927;-93
2022/02/12 04:12:39;;;;;;;;;;;4.10;99.90;;;;;;5003127;28;19930;-92
2022/02/12 04:15:15;;;;;;;;;;;4.20;99.90;;;;;;5003783;28;19926;-93
2022/02/12 04:17:47;;;;;;;;;;;4.20;99.90;;;;;;5018365;28;19937;-92
2022/02/12 04:20:22;;;;;;;;;;;4.20;99.90;;;;;;5004174;28;19926;-94
2022/02/12 04:22:51;;;;;;;;;;;4.30;99.90;;;;;;5005175;28;19927;-92
2022/02/12 04:25:20;;;;;;;;;;;4.30;99.90;;;;;;5021749;28;19948;-92
2022/02/12 04:27:50;;;;;;;;;;;4.40;99.90;;;;;;5005660;28;19926;-94
2022/02/12 04:30:19;;;;;;;;;;;4.40;99.90;;;;;;4989094;28;19933;-93
2022/02/12 04:32:53;;;;;;;;;;;4.40;99.90;;;;;;4973751;28;19963;-93
2022/02/12 04:35:21;;;;;;;;;;;4.40;99.90;;;;;;5004108;28;19925;-93
2022/02/12 04:37:49;;;;;;;;;;;4.50;99.90;;;;;;4988663;28;20561;-93
2022/02/12 04:40:20;;;;;;;;;;;4.50;99.90;;;;;;5003524;28;19933;-92
2022/02/12 04:42:48;;;;;;;;;;;4.50;99.90;;;;;;5003820;28;19930;-95
2022/02/12 04:45:18;;;;;;;;;;;4.60;99.90;;;;;;4987344;28;20488;-94
2022/02/12 04:47:47;;;;;;;;;;;4.60;99.90;;;;;;4972540;28;19926;-93
2022/02/12 04:50:15;;;;;;;;;;;4.70;99.90;;;;;;5003383;28;19929;-94
2022/02/12 04:52:44;;;;;;;;;;;4.70;99.90;;;;;;4988236;28;19933;-92
2022/02/12 04:55:13;;;;;;;;;;;4.80;99.90;;;;;;5003983;28;20005;-94
2022/02/12 04:57:45;;;;;;;;;;;5.10;99.90;;;;;;5003251;28;19930;-93
2022/02/12 05:00:13;;;;;;;;;;;5.00;99.90;;;;;;5004436;28;19933;-92
2022/02/12 05:02:50;;;;;;;;;;;4.90;99.90;;;;;;5002808;28;20001;-92
2022/02/12 05:05:19;;;;;;;;;;;4.90;99.90;;;;;;4998386;28;20274;-94
2022/02/12 05:07:47;;;;;;;;;;;5.00;99.90;;;;;;4985934;28;19934;-92
2022/02/12 05:10:15;;;;;;;;;;;5.00;99.90;;;;;;5002239;28;20301;-92
2022/02/12 05:12:43;;;;;;;;;;;5.00;99.90;;;;;;5001688;28;19936;-93
2022/02/12 05:15:12;;;;;;;;;;;5.00;99.90;;;;;;5003094;28;19933;-92
2022/02/12 05:17:40;;;;;;;;;;;5.00;99.90;;;;;;4974016;28;19926;-92
2022/02/12 05:20:12;;;;;;;;;;;4.90;99.90;;;;;;4997293;28;19926;-94
2022/02/12 05:22:48;;;;;;;;;;;4.90;99.90;;;;;;5005946;28;19929;-93
2022/02/12 05:25:18;;;;;;;;;;;4.90;99.90;;;;;;5023194;28;19933;-92
2022/02/12 05:27:46;;;;;;;;;;;4.90;99.90;;;;;;5006995;28;19926;-92
2022/02/12 05:30:15;;;;;;;;;;;4.90;99.90;;;;;;5006873;28;19926;-94
2022/02/12 05:32:42;;;;;;;;;;;4.90;99.90;;;;;;4989547;28;19952;-91
2022/02/12 05:35:11;;;;;;;;;;;5.00;99.90;;;;;;5006484;28;20365;-93
2022/02/12 05:37:40;;;;;;;;;;;4.90;99.90;;;;;;5006340;28;19929;-92
2022/02/12 05:40:08;;;;;;;;;;;4.90;99.90;;;;;;5022741;28;19997;-93
2022/02/12 05:42:36;;;;;;;;;;;4.90;99.90;;;;;;5005391;28;19936;-93
2022/02/12 05:45:04;;;;;;;;;;;4.90;99.90;;;;;;5004863;28;19934;-92
2022/02/12 05:47:42;;;;;;;;;;;4.90;99.90;;;;;;5008170;28;19930;-94
2022/02/12 05:50:10;;;;;;;;;;;4.90;99.90;;;;;;5021551;28;19926;-94
2022/02/12 05:52:47;;;;;;;;;;;4.90;99.90;;;;;;5003483;28;20289;-93
2022/02/12 05:55:15;;;;;;;;;;;4.90;99.90;;;;;;4985797;28;19929;-94
2022/02/12 05:57:47;;;;;;;;;;;5.00;99.90;;;;;;5002488;28;20283;-92
2022/02/12 06:00:35;;;;;;;;;;;5.00;99.90;;;;;;5010570;28;19932;-94
2022/02/12 06:03:06;;;;;;;;;;;5.00;99.90;;;;;;5007599;28;19930;-91
2022/02/12 06:05:54;;;;;;;;;;;5.10;99.90;;;;;;4986528;28;19941;-93
2022/02/12 06:08:24;;;;;;;;;;;5.10;99.90;;;;;;5006476;28;19926;-92
2022/02/12 06:10:55;;;;;;;;;;;5.10;99.90;;;;;;5006524;28;20404;-93
2022/02/12 06:13:23;;;;;;;;;;;5.10;99.90;;;;;;5011518;28;20411;-93
2022/02/12 06:15:53;;;;;;;;;;;5.20;99.90;;;;;;4995298;28;19932;-94
2022/02/12 06:18:23;;;;;;;;;;;5.10;99.90;;;;;;4974424;28;19945;-93
2022/02/12 06:20:51;;;;;;;;;;;5.10;99.90;;;;;;5040682;23;19940;-94
2022/02/12 06:23:29;;;;;;;;;;;5.10;99.90;;;;;;5047908;28;20164;-92
2022/02/12 06:26:03;;;;;;;;;;;5.10;99.90;;;;;;5048776;28;19925;-93
2022/02/12 06:28:37;;;;;;;;;;;5.10;99.90;;;;;;5048885;28;19931;-93
2022/02/12 06:31:05;;;;;;;;;;;5.10;99.90;;;;;;5065933;28;19925;-95
2022/02/12 06:33:35;;;;;;;;;;;5.30;99.90;;;;;;5066128;28;19935;-93
2022/02/12 06:36:05;;;;;;;;;;;5.20;99.90;;;;;;5063782;28;19925;-93
2022/02/12 06:38:34;;;;;;;;;;;5.20;99.90;;;;;;5048406;28;19928;-93
2022/02/12 06:41:07;;;;;;;;;;;5.10;99.90;;;;;;5032659;28;20399;-92
2022/02/12 06:43:37;;;;;;;;;;;5.10;99.90;;;;;;5049220;28;19939;-93
2022/02/12 06:46:26;;;;;;;;;;;5.10;99.90;;;;;;5049833;28;19931;-91
2022/02/12 06:48:54;;;;;;;;;;;5.10;99.90;;;;;;5029730;28;19925;-94
2022/02/12 06:51:27;;;;;;;;;;;5.20;99.90;;;;;;5029948;28;19929;-93
2022/02/12 06:54:01;;;;;;;;;;;5.30;99.90;;;;;;5030836;28;19940;-92
2022/02/12 06:56:33;;;;;;;;;;;5.20;99.90;;;;;;5047274;28;19925;-94
2022/02/12 06:59:02;;;;;;;;;;;5.20;99.90;;;;;;5043726;28;20416;-92
2022/02/12 07:01:35;;;;;;;;;;;4.40;99.90;;;;;;5028966;28;20028;-94
2022/02/12 07:04:13;;;;;;;;;;;5.20;99.90;;;;;;5028340;28;19925;-93
2022/02/12 07:06:56;;;;;;;;;;;5.60;99.90;;;;;;5040732;28;19925;-93
2022/02/12 07:09:24;;;;;;;;;;;5.10;99.90;;;;;;5065601;28;20323;-93
2022/02/12 07:11:53;;;;;;;;;;;4.40;99.90;;;;;;5066728;28;19947;-93
2022/02/12 07:14:28;;;;;;;;;;;5.10;99.90;;;;;;5067243;28;19929;-94
2022/02/12 07:17:17;;;;;;;;;;;5.20;99.90;;;;;;5056094;28;19925;-94
2022/02/12 07:19:49;;;;;;;;;;;5.10;99.90;;;;;;5043548;28;19931;-92
2022/02/12 07:22:40;;;;;;;;;;;5.20;99.90;;;;;;5056788;28;19929;-94
2022/02/12 07:25:15;;;;;;;;;;;5.20;99.90;;;;;;5052199;28;19924;-93
2022/02/12 07:28:01;;;;;;;;;;;5.10;99.90;;;;;;5037441;28;19935;-93
2022/02/12 07:30:41;;;;;;;;;;;5.10;99.90;;;;;;5051159;28;19924;-94
2022/02/12 07:33:28;;;;;;;;;;;5.20;99.90;;;;;;5051169;28;19935;-94
2022/02/12 07:36:00;;;;;;;;;;;5.20;99.90;;;;;;5050124;28;20631;-92
2022/02/12 07:38:40;;;;;;;;;;;5.20;99.90;;;;;;5050497;28;19928;-93
2022/02/12 07:41:34;;;;;;;;;;;5.90;99.90;;;;;;5066412;28;19924;-94
2022/02/12 07:44:17;;;;;;;;;;;5.20;99.90;;;;;;5054243;28;19924;-93
2022/02/12 07:47:01;;;;;;;;;;;5.20;99.90;;;;;;5064764;28;20286;-92
2022/02/12 07:49:53;;;;;;;;;;;5.20;99.90;;;;;;5052251;28;19932;-92
2022/02/12 07:52:25;;;;;;;;;;;5.20;99.90;;;;;;5037131;28;19925;-93
2022/02/12 07:54:55;;;;;;;;;;;5.20;99.90;;;;;;5017959;28;19925;-93
2022/02/12 07:57:29;;;;;;;;;;;5.30;99.90;;;;;;5050916;28;20035;-94
2022/02/12 08:00:45;;;;;;;;;;;5.30;99.90;;;;;;5048735;28;19939;-92
2022/02/12 08:03:33;;;;;;;;;;;5.30;99.90;;;;;;5048232;28;19931;-92
2022/02/12 08:09:19;;;;;;;;;;;5.00;99.90;;;;;;5068195;28;19939;-94
2022/02/12 08:12:22;;;;;;;;;;;5.40;99.90;;;;;;5053326;28;19928;-93
2022/02/12 08:15:39;;;;;;;;;;;5.40;99.90;;;;;;5070982;28;19925;-93
2022/02/12 08:18:22;;;;;;;;;;;5.50;99.90;;;;;;5055988;28;19931;-93
2022/02/12 08:20:57;;;;;;;;;;;5.50;99.90;;;;;;5049014;28;19931;-91
2022/02/12 08:23:51;;;;;;;;;;;5.50;99.90;;;;;;5085966;28;19928;-94
2022/02/12 08:26:24;;;;;;;;;;;5.60;99.90;;;;;;5068062;28;19929;-93
2022/02/12 08:29:06;;;;;;;;;;;5.70;99.90;;;;;;5067335;28;19925;-93
2022/02/12 08:31:38;;;;;;;;;;;5.70;99.90;;;;;;5083041;28;19921;-92
2022/02/12 08:34:29;;;;;;;;;;;5.80;99.90;;;;;;5032919;28;19925;-94
2022/02/12 08:37:07;;;;;;;;;;;5.80;99.90;;;;;;5063873;28;19925;-94
2022/02/12 08:39:45;;;;;;;;;;;5.90;99.90;;;;;;5065225;28;19925;-93
2022/02/12 08:42:22;;;;;;;;;;;6.00;99.90;;;;;;5080642;28;19931;-93
2022/02/12 08:45:23;;;;;;;;;;;6.00;99.90;;;;;;5072215;28;19931;-95
2022/02/12 08:47:57;;;;;;;;;;;6.20;99.90;;;;;;5068423;28;19913;-91
2022/02/12 08:50:49;;;;;;;;;;;6.40;99.90;;;;;;5052696;28;19927;-93
2022/02/12 08:53:28;;;;;;;;;;;6.30;99.90;;;;;;5046702;28;19925;-93
2022/02/12 08:56:34;;;;;;;;;;;6.30;99.90;;;;;;5075302;28;19939;-94
2022/02/12 08:59:10;;;;;;;;;;;6.40;99.90;;;;;;5056327;28;19913;-94
2022/02/12 09:01:53;;;;;;;;;;;6.60;99.90;;;;;;5057316;28;19932;-94
2022/02/12 09:04:51;;;;;;;;;;;6.60;99.90;;;;;;5046717;28;19925;-95
2022/02/12 09:08:12;;;;;;;;;;;6.70;99.90;;;;;;5076618;28;19935;-91
2022/02/12 09:11:34;;;;;;;;;;;6.70;99.90;;;;;;5068221;28;19915;-94
2022/02/12 09:14:29;;;;;;;;;;;6.80;99.90;;;;;;5045971;28;19908;-92
2022/02/12 09:17:03;;;;;;;;;;;6.80;99.90;;;;;;5080429;28;19925;-93
2022/02/12 09:19:48;;;;;;;;;;;6.90;99.90;;;;;;5188503;22;19925;-92
2022/02/12 09:22:41;;;;;;;;;;;7.00;99.90;;;;;;5076660;28;19923;-93
2022/02/12 09:25:17;;;;;;;;;;;7.00;99.90;;;;;;5059067;28;19931;-94
2022/02/12 09:28:04;;;;;;;;;;;7.10;99.90;;;;;;5061106;28;19908;-94
2022/02/12 09:30:38;;;;;;;;;;;7.20;99.90;;;;;;5059852;28;19991;-93
2022/02/12 09:33:18;;;;;;;;;;;7.20;99.90;;;;;;5075692;28;19925;-94
2022/02/12 09:36:02;;;;;;;;;;;7.30;99.90;;;;;;5063615;28;19924;-92
2022/02/12 09:38:34;;;;;;;;;;;7.30;99.90;;;;;;5060494;28;19931;-94
2022/02/12 09:41:12;;;;;;;;;;;7.40;99.90;;;;;;5061702;28;19931;-91
2022/02/12 09:43:58;;;;;;;;;;;7.40;99.90;;;;;;5061241;28;19931;-91
2022/02/12 09:46:40;;;;;;;;;;;7.40;99.90;;;;;;5077321;28;19927;-94
2022/02/12 09:49:13;;;;;;;;;;;7.40;99.90;;;;;;5061001;28;19925;-92
2022/02/12 09:51:48;;;;;;;;;;;7.50;99.90;;;;;;5061817;28;19919;-93
2022/02/12 09:54:27;;;;;;;;;;;7.70;99.90;;;;;;5045867;28;19921;-92
2022/02/12 09:57:15;;;;;;;;;;;7.60;99.90;;;;;;5058085;28;19925;-91
2022/02/12 09:59:57;;;;;;;;;;;7.60;99.90;;;;;;5057591;28;20036;-91
2022/02/12 10:02:32;;;;;;;;;;;7.70;99.90;;;;;;5025381;28;19925;-93
2022/02/12 10:05:29;;;;;;;;;;;7.80;99.90;;;;;;5057826;28;19928;-90
2022/02/12 10:08:15;;;;;;;;;;;7.70;99.90;;;;;;5041528;28;19931;-92
2022/02/12 10:10:52;;;;;;;;;;;8.00;99.90;;;;;;5057881;28;19925;-94
2022/02/12 10:13:49;;;;;;;;;;;8.00;99.90;;;;;;5057530;28;19925;-94
2022/02/12 10:16:47;;;;;;;;;;;7.90;99.90;;;;;;5057685;28;19925;-94
2022/02/12 10:19:29;;;;;;;;;;;8.30;99.90;;;;;;5059972;28;19935;-94
2022/02/12 10:22:24;;;;;;;;;;;8.00;99.90;;;;;;5056521;28;19916;-92
2022/02/12 10:25:09;;;;;;;;;;;7.90;99.90;;;;;;5055443;28;19925;-92
2022/02/12 10:27:50;;;;;;;;;;;7.90;99.90;;;;;;5073464;28;19925;-92
2022/02/12 10:30:31;;;;;;;;;;;7.90;99.90;;;;;;5073332;28;19924;-91
2022/02/12 10:33:43;;;;;;;;;;;7.90;99.90;;;;;;5075628;28;19925;-91
2022/02/12 10:36:19;;;;;;;;;;;7.90;99.90;;;;;;5076230;28;19919;-92
2022/02/12 10:38:52;;;;;;;;;;;7.70;99.90;;;;;;5042980;28;19925;-89
2022/02/12 10:42:03;;;;;;;;;;;7.80;99.90;;;;;;5038489;28;19929;-91
2022/02/12 10:44:44;;;;;;;;;;;7.90;99.90;;;;;;5036052;28;19925;-90
2022/02/12 10:47:23;;;;;;;;;;;7.80;99.90;;;;;;5051869;28;19925;-94
2022/02/12 10:49:54;;;;;;;;;;;8.20;99.90;;;;;;5062109;28;19925;-91
2022/02/12 10:52:38;;;;;;;;;;;7.90;99.90;;;;;;5038153;28;19924;-94
2022/02/12 10:55:41;;;;;;;;;;;7.90;99.90;;;;;;5053851;28;19925;-91
2022/02/12 10:58:26;;;;;;;;;;;7.90;99.90;;;;;;5036472;28;19939;-94
2022/02/12 11:01:03;;;;;;;;;;;8.00;99.90;;;;;;5069436;28;19944;-93
2022/02/12 11:03:47;;;;;;;;;;;8.00;99.90;;;;;;5061492;28;19928;-92
2022/02/12 11:06:26;;;;;;;;;;;8.00;99.90;;;;;;5088158;28;19921;-92
2022/02/12 11:09:08;;;;;;;;;;;8.00;99.90;;;;;;5066852;28;19932;-92
2022/02/12 11:12:04;;;;;;;;;;;8.10;99.90;;;;;;5064647;28;19925;-92
2022/02/12 11:14:49;;;;;;;;;;;8.10;99.90;;;;;;5046483;28;20091;-92
2022/02/12 11:17:22;;;;;;;;;;;8.10;99.90;;;;;;5068203;28;19932;-93
2022/02/12 11:20:09;;;;;;;;;;;8.10;99.90;;;;;;5065449;28;19932;-93
2022/02/12 11:22:43;;;;;;;;;;;8.10;99.90;;;;;;5051100;28;19939;-91
2022/02/12 11:25:34;;;;;;;;;;;8.00;99.90;;;;;;5067356;28;19924;-96
2022/02/12 11:28:09;;;;;;;;;;;8.00;99.90;;;;;;5049430;28;19920;-91
2022/02/12 11:30:43;;;;;;;;;;;7.90;99.90;;;;;;5052182;28;19931;-91
2022/02/12 11:33:22;;;;;;;;;;;7.90;99.90;;;;;;5069588;28;19935;-94
2022/02/12 11:36:16;;;;;;;;;;;7.90;99.90;;;;;;5067484;28;20374;-91
2022/02/12 11:38:47;;;;;;;;;;;7.90;99.90;;;;;;5061545;28;19929;-93
2022/02/12 11:41:19;;;;;;;;;;;8.20;99.90;;;;;;5061637;28;19951;-90
2022/02/12 11:43:54;;;;;;;;;;;7.90;99.90;;;;;;5050572;28;19931;-88
2022/02/12 11:47:00;;;;;;;;;;;7.90;99.90;;;;;;5048872;28;20296;-88
2022/02/12 11:49:31;;;;;;;;;;;7.80;99.80;;;;;;5064654;28;19932;-92
2022/02/12 11:52:08;;;;;;;;;;;7.60;99.60;;;;;;5064382;28;19939;-88
2022/02/12 11:54:47;;;;;;;;;;;7.80;99.70;;;;;;5067081;28;19925;-88
2022/02/12 11:57:41;;;;;;;;;;;7.90;99.80;;;;;;5051160;28;19925;-91
2022/02/12 12:00:11;;;;;;;;;;;7.90;99.40;;;;;;5066832;28;19933;-89
2022/02/12 12:02:54;;;;;;;;;;;7.90;99.60;;;;;;5046111;28;19940;-91
2022/02/12 12:05:30;;;;;;;;;;;8.00;99.70;;;;;;5064762;28;19925;-88
2022/02/12 12:08:07;;;;;;;;;;;8.00;99.40;;;;;;5058897;28;19925;-91
2022/02/12 12:11:07;;;;;;;;;;;7.80;98.90;;;;;;5057021;28;19924;-90
2022/02/12 12:13:43;;;;;;;;;;;8.20;98.00;;;;;;5061976;28;19925;-90
2022/02/12 12:16:14;;;;;;;;;;;8.20;97.60;;;;;;5052069;28;19931;-92
2022/02/12 12:18:47;;;;;;;;;;;8.30;97.20;;;;;;5067317;28;19933;-93
2022/02/12 12:21:30;;;;;;;;;;;8.40;97.40;;;;;;5046843;28;20004;-92
2022/02/12 12:24:00;;;;;;;;;;;8.40;96.90;;;;;;5046747;28;19925;-88
2022/02/12 12:26:49;;;;;;;;;;;8.60;97.10;;;;;;5068250;28;19925;-90
2022/02/12 12:32:10;;;;;;;;;;;8.70;96.30;;;;;;5076430;28;19939;-89
2022/02/12 12:34:51;;;;;;;;;;;8.80;96.10;;;;;;5076364;28;19913;-87
2022/02/12 12:37:50;;;;;;;;;;;8.90;96.70;;;;;;5071487;28;19928;-88
2022/02/12 12:40:34;;;;;;;;;;;8.90;96.90;;;;;;5071807;28;19924;-91
2022/02/12 12:43:08;;;;;;;;;;;9.00;97.30;;;;;;5069117;28;19929;-88
2022/02/12 12:45:54;;;;;;;;;;;9.10;97.50;;;;;;5036318;28;19925;-88
2022/02/12 12:48:34;;;;;;;;;;;9.30;97.40;;;;;;5069196;28;20105;-90
2022/02/12 12:51:15;;;;;;;;;;;9.40;97.40;;;;;;5072347;28;19924;-88
2022/02/12 12:53:46;;;;;;;;;;;9.50;97.00;;;;;;5037801;28;19932;-92
2022/02/12 12:56:26;;;;;;;;;;;9.50;95.80;;;;;;5066748;28;19933;-87
2022/02/12 12:59:18;;;;;;;;;;;9.50;94.20;;;;;;5067571;28;19929;-90
2022/02/12 13:02:04;;;;;;;;;;;9.40;93.90;;;;;;5056318;28;19924;-89
2022/02/12 13:04:40;;;;;;;;;;;9.40;93.50;;;;;;5061023;28;19929;-92
2022/02/12 13:07:16;;;;;;;;;;;9.40;93.30;;;;;;5047038;28;19929;-90
2022/02/12 13:10:05;;;;;;;;;;;9.30;93.00;;;;;;5066356;28;20400;-89
2022/02/12 13:12:44;;;;;;;;;;;9.40;93.80;;;;;;5067655;28;19924;-91
2022/02/12 13:15:36;;;;;;;;;;;9.30;94.40;;;;;;5056100;28;20383;-90
2022/02/12 13:18:09;;;;;;;;;;;9.30;94.80;;;;;;5071245;28;19909;-87
2022/02/12 13:20:43;;;;;;;;;;;8.10;95.30;;;;;;5057969;28;19924;-91
2022/02/12 13:23:18;;;;;;;;;;;9.80;95.50;;;;;;5054844;28;19925;-90
2022/02/12 13:25:52;;;;;;;;;;;9.60;95.20;;;;;;5045360;28;19935;-86
2022/02/12 13:28:36;;;;;;;;;;;9.60;95.60;;;;;;5052983;28;19925;-88
2022/02/12 13:31:09;;;;;;;;;;;9.50;95.50;;;;;;5065031;28;19932;-89
2022/02/12 13:34:12;;;;;;;;;;;9.50;96.10;;;;;;5067324;28;19925;-88
2022/02/12 13:36:59;;;;;;;;;;;9.50;95.70;;;;;;5070842;28;19927;-86
2022/02/12 13:39:37;;;;;;;;;;;9.50;95.30;;;;;;5061036;28;19919;-87
2022/02/12 13:42:12;;;;;;;;;;;9.50;94.20;;;;;;5075556;28;19925;-87
2022/02/12 13:44:44;;;;;;;;;;;9.40;94.20;;;;;;5057709;28;19921;-87
2022/02/12 13:47:22;;;;;;;;;;;9.30;94.60;;;;;;5060751;28;19925;-85
2022/02/12 13:49:54;;;;;;;;;;;9.30;94.70;;;;;;5059583;28;19925;-86
2022/02/12 13:52:36;;;;;;;;;;;9.30;95.10;;;;;;5054106;28;19939;-87
2022/02/12 13:55:09;;;;;;;;;;;9.30;95.70;;;;;;5046258;28;19925;-88
2022/02/12 13:57:38;;;;;;;;;;;9.50;95.80;;;;;;5054553;28;19920;-88
2022/02/12 14:00:15;;;;;;;;;;;9.60;96.30;;;;;;5077196;28;19919;-86
2022/02/12 14:02:54;;;;;;;;;;;10.10;96.40;;;;;;5077274;28;19939;-88
2022/02/12 14:05:51;;;;;;;;;;;9.60;96.40;;;;;;5070894;28;19925;-86
2022/02/12 14:08:20;;;;;;;;;;;9.80;95.60;;;;;;5077909;28;19920;-92
2022/02/12 14:11:24;;;;;;;;;;;12.50;96.20;;;;;;5079107;28;19908;-87
2022/02/12 14:14:03;;;;;;;;;;;9.60;95.80;;;;;;5076483;28;20132;-88
2022/02/12 14:17:11;;;;;;;;;;;9.50;96.50;;;;;;5039525;28;19932;-89
2022/02/12 14:19:52;;;;;;;;;;;9.30;96.60;;;;;;5070622;28;19909;-88
2022/02/12 14:22:29;;;;;;;;;;;9.50;96.60;;;;;;5072092;28;19908;-88
2022/02/12 14:25:03;;;;;;;;;;;9.40;96.50;;;;;;5078731;28;19909;-88
2022/02/12 14:27:55;;;;;;;;;;;9.30;96.40;;;;;;5074371;28;19996;-89
2022/02/12 14:30:35;;;;;;;;;;;9.30;96.30;;;;;;5077438;28;19938;-89
2022/02/12 14:33:05;;;;;;;;;;;9.30;96.00;;;;;;5072243;28;19917;-90
2022/02/12 14:35:33;;;;;;;;;;;9.30;95.70;;;;;;5043733;28;19913;-92
2022/02/12 14:38:04;;;;;;;;;;;8.10;94.90;;;;;;5059819;28;19933;-90
2022/02/12 14:40:47;;;;;;;;;;;9.40;95.20;;;;;;5078318;28;19912;-87
2022/02/12 14:44:40;;;;;;;;;;;8.90;95.00;;;;;;5076246;28;19927;-86
2022/02/12 14:47:12;;;;;;;;;;;9.50;94.50;;;;;;5046806;28;19913;-91
2022/02/12 14:49:42;;;;;;;;;;;9.50;94.60;;;;;;5078715;28;19924;-89
2022/02/12 14:52:11;;;;;;;;;;;9.50;94.20;;;;;;5044887;28;19929;-89
2022/02/12 14:54:48;;;;;;;;;;;9.50;93.60;;;;;;5071061;28;19917;-90
2022/02/12 14:57:22;;;;;;;;;;;9.60;94.20;;;;;;5059059;28;19939;-87
2022/02/12 14:59:53;;;;;;;;;;;9.70;94.60;;;;;;5072344;28;19909;-89
2022/02/12 15:02:38;;;;;;;;;;;9.90;94.80;;;;;;5048567;28;19931;-92
2022/02/12 15:05:21;;;;;;;;;;;9.30;94.60;;;;;;5066429;28;19929;-87
2022/02/12 15:07:56;;;;;;;;;;;9.90;94.70;;;;;;5059908;28;19925;-88
2022/02/12 15:10:32;;;;;;;;;;;9.90;94.40;;;;;;5067596;28;19913;-90
2022/02/12 15:13:04;;;;;;;;;;;10.30;94.70;;;;;;5072737;28;19924;-86
2022/02/12 15:15:40;;;;;;;;;;;10.20;94.50;;;;;;5080961;28;19912;-90
2022/02/12 15:18:22;;;;;;;;;;;10.30;93.60;;;;;;5076980;28;19908;-88
2022/02/12 15:20:56;;;;;;;;;;;10.40;93.10;;;;;;5073573;28;19927;-89
2022/02/12 15:23:32;;;;;;;;;;;10.30;93.30;;;;;;5069351;28;20444;-91
2022/02/12 15:26:11;;;;;;;;;;;10.10;93.60;;;;;;5053326;28;19932;-91
2022/02/12 15:28:56;;;;;;;;;;;11.70;94.20;;;;;;5060188;28;19925;-87
2022/02/12 15:31:25;;;;;;;;;;;9.80;94.20;;;;;;5069853;28;19924;-88
2022/02/12 15:34:02;;;;;;;;;;;9.30;94.90;;;;;;5072861;28;19925;-89
2022/02/12 15:36:31;;;;;;;;;;;9.40;94.90;;;;;;5053605;28;19925;-88
2022/02/12 15:39:02;;;;;;;;;;;9.40;95.20;;;;;;5055402;28;19909;-89